createdAt,value
2022-12-01T00:01:09.090Z,98705.88
2022-12-01T00:03:36.745Z,98705.88
2022-12-01T00:06:11.378Z,98709.56
2022-12-01T00:08:38.893Z,98706.63
2022-12-01T00:11:14.288Z,98705.41
2022-12-01T00:13:41.275Z,98700.78
2022-12-01T00:16:16.881Z,98697.16
2022-12-01T00:18:44.316Z,98702.50
2022-12-01T00:21:19.184Z,98694.47
2022-12-01T00:23:48.364Z,98687.91
2022-12-01T00:26:16.547Z,98693.72
2022-12-01T00:28:43.823Z,98684.00
2022-12-01T00:31:12.326Z,98681.56
2022-12-01T00:33:40.216Z,98684.97
2022-12-01T00:36:07.706Z,98681.06
2022-12-01T00:38:35.290Z,98678.66
2022-12-01T00:41:03.139Z,98676.44
2022-12-01T00:43:30.537Z,98672.09
2022-12-01T00:45:57.716Z,98667.44
2022-12-01T00:48:25.209Z,98662.09
2022-12-01T00:50:53.877Z,98665.03
2022-12-01T00:53:21.195Z,98661.66
2022-12-01T00:55:48.248Z,98661.66
2022-12-01T00:58:15.332Z,98648.75
2022-12-01T01:00:43.170Z,98643.63
2022-12-01T01:03:11.381Z,98648.50
2022-12-01T01:05:40.619Z,98650.41
2022-12-01T01:08:13.789Z,98645.38
2022-12-01T01:10:46.824Z,98649.25
2022-12-01T01:13:15.520Z,98643.63
2022-12-01T01:15:42.686Z,98637.09
2022-12-01T01:18:11.871Z,98633.19
2022-12-01T01:20:39.014Z,98632.91
2022-12-01T01:23:06.316Z,98635.81
2022-12-01T01:25:33.450Z,98632.41
2022-12-01T01:28:00.638Z,98638.69
2022-12-01T01:30:27.906Z,98623.66
2022-12-01T01:32:54.938Z,98618.56
2022-12-01T01:35:22.040Z,98617.56
2022-12-01T01:37:50.318Z,98621.66
2022-12-01T01:40:17.832Z,98618.75
2022-12-01T01:42:45.339Z,98623.88
2022-12-01T01:45:32.537Z,98621.38
2022-12-01T01:48:00.941Z,98606.09
2022-12-01T01:50:28.817Z,98599.84
2022-12-01T01:53:00.660Z,98606.59
2022-12-01T01:55:28.924Z,98599.84
2022-12-01T01:57:56.198Z,98591.53
2022-12-01T02:00:23.366Z,98586.94
2022-12-01T02:02:51.554Z,98581.81
2022-12-01T02:05:23.599Z,98582.56
2022-12-01T02:07:56.986Z,98582.06
2022-12-01T02:10:59.939Z,98576.25
2022-12-01T02:13:45.676Z,98576.50
2022-12-01T02:17:06.686Z,98571.16
2022-12-01T02:19:54.199Z,98563.13
2022-12-01T02:23:02.342Z,98566.03
2022-12-01T02:25:46.726Z,98559.94
2022-12-01T02:28:32.172Z,98564.56
2022-12-01T02:31:15.080Z,98558.22
2022-12-01T02:33:53.559Z,98557.78
2022-12-01T02:36:32.564Z,98560.22
2022-12-01T02:39:19.241Z,98558.28
2022-12-01T02:41:54.189Z,98547.81
2022-12-01T02:44:35.691Z,98558.03
2022-12-01T02:47:11.527Z,98549.53
2022-12-01T02:49:49.981Z,98536.91
2022-12-01T02:52:19.116Z,98538.38
2022-12-01T02:54:48.638Z,98529.88
2022-12-01T02:57:16.816Z,98534.03
2022-12-01T02:59:49.009Z,98527.47
2022-12-01T03:02:24.633Z,98533.28
2022-12-01T03:05:00.658Z,98530.63
2022-12-01T03:07:54.493Z,98535.69
2022-12-01T03:10:40.340Z,98537.41
2022-12-01T03:13:20.326Z,98545.41
2022-12-01T03:16:12.568Z,98535.22
2022-12-01T03:18:56.913Z,98532.06
2022-12-01T03:21:32.989Z,98542.50
2022-12-01T03:24:08.454Z,98539.88
2022-12-01T03:26:38.073Z,98537.91
2022-12-01T03:29:37.039Z,98536.19
2022-12-01T03:32:27.079Z,98538.16
2022-12-01T03:35:04.703Z,98533.03
2022-12-01T03:37:49.897Z,98533.97
2022-12-01T03:40:22.846Z,98530.59
2022-12-01T03:42:57.962Z,98533.28
2022-12-01T03:45:34.670Z,98523.56
2022-12-01T03:48:01.912Z,98530.38
2022-12-01T03:50:54.118Z,98530.38
2022-12-01T03:53:28.887Z,98537.16
2022-12-01T03:56:03.814Z,98533.06
2022-12-01T03:58:39.514Z,98532.81
2022-12-01T04:01:08.303Z,98533.50
2022-12-01T04:03:35.608Z,98531.34
2022-12-01T04:06:04.932Z,98521.38
2022-12-01T04:08:33.963Z,98527.69
2022-12-01T04:11:01.026Z,98530.38
2022-12-01T04:13:28.339Z,98522.06
2022-12-01T04:15:55.803Z,98519.69
2022-12-01T04:18:22.889Z,98523.28
2022-12-01T04:20:50.865Z,98523.28
2022-12-01T04:23:36.363Z,98522.59
2022-12-01T04:26:05.631Z,98522.59
2022-12-01T04:28:32.707Z,98519.69
2022-12-01T04:30:59.751Z,98522.06
2022-12-01T04:33:26.807Z,98519.69
2022-12-01T04:35:58.757Z,98524.28
2022-12-01T04:38:30.640Z,98515.53
2022-12-01T04:40:58.095Z,98518.22
2022-12-01T04:43:25.259Z,98512.88
2022-12-01T04:45:52.291Z,98514.34
2022-12-01T04:48:19.317Z,98516.03
2022-12-01T04:50:49.560Z,98512.13
2022-12-01T04:53:16.553Z,98520.63
2022-12-01T04:55:43.791Z,98520.38
2022-12-01T04:58:10.860Z,98513.34
2022-12-01T05:00:38.099Z,98514.78
2022-12-01T05:03:06.934Z,98516.72
2022-12-01T05:05:35.664Z,98515.53
2022-12-01T05:08:02.780Z,98517.00
2022-12-01T05:10:30.032Z,98515.78
2022-12-01T05:12:58.557Z,98514.34
2022-12-01T05:15:25.640Z,98510.44
2022-12-01T05:17:52.650Z,98511.63
2022-12-01T05:20:42.737Z,98514.31
2022-12-01T05:23:15.258Z,98512.13
2022-12-01T05:25:43.934Z,98511.84
2022-12-01T05:28:11.071Z,98510.41
2022-12-01T05:30:38.128Z,98512.59
2022-12-01T05:33:05.121Z,98515.00
2022-12-01T05:35:33.923Z,98511.59
2022-12-01T05:38:06.055Z,98520.59
2022-12-01T05:40:34.899Z,98521.31
2022-12-01T05:43:02.501Z,98516.44
2022-12-01T05:45:29.622Z,98517.41
2022-12-01T05:47:58.016Z,98513.28
2022-12-01T05:50:26.065Z,98521.50
2022-12-01T05:52:53.060Z,98520.78
2022-12-01T05:55:20.413Z,98525.63
2022-12-01T05:57:47.348Z,98525.84
2022-12-01T06:00:15.573Z,98527.28
2022-12-01T06:02:43.405Z,98525.84
2022-12-01T06:05:10.397Z,98533.38
2022-12-01T06:07:40.408Z,98535.81
2022-12-01T06:10:09.768Z,98531.19
2022-12-01T06:12:37.530Z,98538.72
2022-12-01T06:15:06.897Z,98536.31
2022-12-01T06:17:39.789Z,98535.84
2022-12-01T06:20:08.672Z,98542.88
2022-12-01T06:22:35.781Z,98542.56
2022-12-01T06:25:02.771Z,98546.72
2022-12-01T06:27:29.719Z,98542.81
2022-12-01T06:29:56.761Z,98542.28
2022-12-01T06:32:23.794Z,98542.75
2022-12-01T06:34:50.769Z,98553.16
2022-12-01T06:37:18.234Z,98556.84
2022-12-01T06:39:45.240Z,98543.47
2022-12-01T06:42:12.503Z,98545.88
2022-12-01T06:44:39.622Z,98542.22
2022-12-01T06:47:08.361Z,98547.09
2022-12-01T06:49:35.995Z,98545.16
2022-12-01T06:52:03.154Z,98549.00
2022-12-01T06:54:30.211Z,98552.88
2022-12-01T06:56:57.242Z,98547.53
2022-12-01T06:59:25.084Z,98552.38
2022-12-01T07:01:52.458Z,98559.84
2022-12-01T07:04:19.509Z,98561.28
2022-12-01T07:06:46.546Z,98555.72
2022-12-01T07:09:13.529Z,98565.66
2022-12-01T07:11:40.627Z,98566.41
2022-12-01T07:14:12.029Z,98561.06
2022-12-01T07:16:39.121Z,98561.75
2022-12-01T07:19:06.131Z,98561.50
2022-12-01T07:21:33.149Z,98557.59
2022-12-01T07:24:00.886Z,98563.41
2022-12-01T07:26:27.935Z,98562.34
2022-12-01T07:28:54.957Z,98560.44
2022-12-01T07:31:21.973Z,98560.16
2022-12-01T07:33:49.004Z,98559.84
2022-12-01T07:36:16.206Z,98562.00
2022-12-01T07:38:43.648Z,98565.34
2022-12-01T07:41:13.118Z,98562.19
2022-12-01T07:43:40.521Z,98561.44
2022-12-01T07:46:20.422Z,98560.69
2022-12-01T07:48:51.191Z,98571.34
2022-12-01T07:51:19.021Z,98568.97
2022-12-01T07:53:47.431Z,98570.22
2022-12-01T07:56:14.572Z,98570.69
2022-12-01T07:58:42.464Z,98577.22
2022-12-01T08:01:15.019Z,98574.31
2022-12-01T08:03:42.784Z,98571.19
2022-12-01T08:06:10.518Z,98572.16
2022-12-01T08:08:39.484Z,98576.97
2022-12-01T08:11:15.172Z,98578.44
2022-12-01T08:13:42.340Z,98575.97
2022-12-01T08:16:12.322Z,98574.97
2022-12-01T08:18:40.550Z,98582.03
2022-12-01T08:21:09.656Z,98583.50
2022-12-01T08:23:36.672Z,98592.69
2022-12-01T08:26:07.051Z,98593.22
2022-12-01T08:28:36.405Z,98597.63
2022-12-01T08:31:09.681Z,98604.22
2022-12-01T08:33:36.955Z,98600.84
2022-12-01T08:36:05.313Z,98604.28
2022-12-01T08:38:33.315Z,98603.56
2022-12-01T08:41:05.391Z,98609.13
2022-12-01T08:43:56.486Z,98605.00
2022-12-01T08:46:19.798Z,98613.50
2022-12-01T08:48:47.252Z,98625.69
2022-12-01T08:51:18.612Z,98626.22
2022-12-01T08:53:48.636Z,98633.28
2022-12-01T08:56:24.531Z,98633.53
2022-12-01T08:58:52.290Z,98631.13
2022-12-01T09:01:19.840Z,98633.09
2022-12-01T09:03:47.315Z,98626.56
2022-12-01T09:06:22.643Z,98624.41
2022-12-01T09:08:49.768Z,98631.72
2022-12-01T09:11:19.618Z,98634.91
2022-12-01T09:13:52.997Z,98624.22
2022-12-01T09:16:21.703Z,98628.84
2022-12-01T09:18:48.827Z,98628.09
2022-12-01T09:21:22.529Z,98621.31
2022-12-01T09:23:49.942Z,98620.09
2022-12-01T09:26:19.355Z,98628.59
2022-12-01T09:28:47.845Z,98622.06
2022-12-01T09:31:16.505Z,98630.34
2022-12-01T09:33:43.536Z,98633.50
2022-12-01T09:36:11.068Z,98639.81
2022-12-01T09:38:39.591Z,98645.44
2022-12-01T09:41:12.128Z,98639.16
2022-12-01T09:43:48.350Z,98644.78
2022-12-01T09:46:29.367Z,98642.88
2022-12-01T09:48:58.234Z,98646.06
2022-12-01T09:51:28.502Z,98641.69
2022-12-01T09:53:58.964Z,98648.72
2022-12-01T09:56:40.950Z,98644.88
2022-12-01T09:59:12.665Z,98644.88
2022-12-01T10:01:43.991Z,98645.38
2022-12-01T10:04:14.112Z,98653.09
2022-12-01T10:07:03.485Z,98651.66
2022-12-01T10:09:41.676Z,98660.16
2022-12-01T10:12:24.019Z,98655.84
2022-12-01T10:14:51.315Z,98656.03
2022-12-01T10:17:48.378Z,98661.38
2022-12-01T10:20:47.784Z,98654.59
2022-12-01T10:23:39.825Z,98651.66
2022-12-01T10:26:31.803Z,98656.72
2022-12-01T10:29:10.901Z,98654.06
2022-12-01T10:31:55.195Z,98658.69
2022-12-01T10:34:26.530Z,98654.31
2022-12-01T10:36:53.719Z,98658.22
2022-12-01T10:39:31.203Z,98655.59
2022-12-01T10:42:10.241Z,98658.78
2022-12-01T10:44:37.397Z,98654.63
2022-12-01T10:47:09.430Z,98652.72
2022-12-01T10:49:41.329Z,98652.22
2022-12-01T10:52:30.248Z,98655.38
2022-12-01T10:54:57.434Z,98644.16
2022-12-01T10:57:25.453Z,98645.91
2022-12-01T10:59:58.003Z,98642.69
2022-12-01T11:02:28.798Z,98641.44
2022-12-01T11:05:08.170Z,98638.03
2022-12-01T11:07:46.305Z,98634.38
2022-12-01T11:10:34.555Z,98631.69
2022-12-01T11:13:37.120Z,98635.06
2022-12-01T11:16:06.592Z,98629.25
2022-12-01T11:18:38.718Z,98629.06
2022-12-01T11:21:15.824Z,98630.28
2022-12-01T11:23:50.941Z,98633.03
2022-12-01T11:26:28.179Z,98631.09
2022-12-01T11:29:26.078Z,98627.47
2022-12-01T11:31:53.753Z,98617.06
2022-12-01T11:34:28.998Z,98623.13
2022-12-01T11:37:06.211Z,98618.06
2022-12-01T11:39:38.494Z,98614.22
2022-12-01T11:42:14.548Z,98615.69
2022-12-01T11:44:52.717Z,98616.16
2022-12-01T11:47:25.485Z,98609.84
2022-12-01T11:50:00.995Z,98601.13
2022-12-01T11:52:31.485Z,98605.75
2022-12-01T11:55:23.671Z,98600.88
2022-12-01T11:57:54.239Z,98593.28
2022-12-01T12:00:24.370Z,98581.38
2022-12-01T12:03:10.027Z,98589.66
2022-12-01T12:09:32.497Z,98582.84
2022-12-01T12:12:19.581Z,98582.84
2022-12-01T12:14:49.449Z,98585.56
2022-12-01T12:17:50.183Z,98593.09
2022-12-01T12:20:41.410Z,98585.59
2022-12-01T12:23:25.030Z,98581.47
2022-12-01T12:25:58.275Z,98589.72
2022-12-01T12:28:37.314Z,98585.84
2022-12-01T12:31:21.600Z,98584.38
2022-12-01T12:33:56.122Z,98582.66
2022-12-01T12:36:44.079Z,98566.41
2022-12-01T12:39:50.224Z,98564.94
2022-12-01T12:42:48.201Z,98566.91
2022-12-01T12:45:25.421Z,98563.97
2022-12-01T12:48:12.127Z,98565.63
2022-12-01T12:50:42.058Z,98560.28
2022-12-01T12:53:21.251Z,98555.41
2022-12-01T12:55:54.788Z,98552.75
2022-12-01T12:58:27.471Z,98547.63
2022-12-01T13:01:01.904Z,98541.34
2022-12-01T13:03:38.748Z,98541.34
2022-12-01T13:06:11.676Z,98530.41
2022-12-01T13:08:48.387Z,98542.38
2022-12-01T13:11:39.241Z,98535.06
2022-12-01T13:14:28.238Z,98534.84
2022-12-01T13:17:02.883Z,98540.16
2022-12-01T13:19:33.892Z,98531.41
2022-12-01T13:22:01.603Z,98517.31
2022-12-01T13:24:31.559Z,98508.56
2022-12-01T13:27:06.161Z,98506.59
2022-12-01T13:29:47.622Z,98508.03
2022-12-01T13:32:41.298Z,98509.25
2022-12-01T13:35:22.338Z,98495.91
2022-12-01T13:37:49.493Z,98500.53
2022-12-01T13:40:24.805Z,98499.34
2022-12-01T13:43:10.274Z,98488.38
2022-12-01T13:45:40.416Z,98488.34
2022-12-01T13:48:28.058Z,98486.41
2022-12-01T13:51:03.231Z,98480.09
2022-12-01T13:53:52.867Z,98481.56
2022-12-01T13:56:39.249Z,98469.84
2022-12-01T14:00:03.506Z,98465.00
2022-12-01T14:02:33.499Z,98462.09
2022-12-01T14:05:23.385Z,98454.53
2022-12-01T14:07:54.471Z,98462.06
2022-12-01T14:10:55.089Z,98450.13
2022-12-01T14:13:23.503Z,98445.03
2022-12-01T14:15:57.145Z,98450.63
2022-12-01T14:18:24.252Z,98437.44
2022-12-01T14:20:51.333Z,98433.53
2022-12-01T14:23:29.383Z,98418.16
2022-12-01T14:26:12.299Z,98411.53
2022-12-01T14:28:57.980Z,98403.81
2022-12-01T14:31:33.957Z,98402.38
2022-12-01T14:34:19.636Z,98397.75
2022-12-01T14:36:52.042Z,98391.75
2022-12-01T14:39:59.705Z,98385.75
2022-12-01T14:42:53.867Z,98393.06
2022-12-01T14:45:27.355Z,98392.34
2022-12-01T14:48:02.413Z,98391.63
2022-12-01T14:50:43.540Z,98385.25
2022-12-01T14:53:24.149Z,98387.69
2022-12-01T14:55:56.912Z,98387.19
2022-12-01T14:58:28.810Z,98385.47
2022-12-01T15:00:58.485Z,98392.34
2022-12-01T15:03:38.738Z,98391.41
2022-12-01T15:06:06.520Z,98389.91
2022-12-01T15:08:53.083Z,98386.72
2022-12-01T15:11:26.266Z,98394.00
2022-12-01T15:13:57.841Z,98398.56
2022-12-01T15:16:29.056Z,98388.31
2022-12-01T15:18:56.817Z,98393.88
2022-12-01T15:21:28.257Z,98388.00
2022-12-01T15:24:25.122Z,98385.13
2022-12-01T15:26:59.138Z,98387.09
2022-12-01T15:29:31.246Z,98391.91
2022-12-01T15:32:04.993Z,98386.16
2022-12-01T15:34:33.818Z,98388.38
2022-12-01T15:37:05.026Z,98388.66
2022-12-01T15:39:35.617Z,98403.28
2022-12-01T15:42:04.013Z,98397.16
2022-12-01T15:44:35.377Z,98401.25
2022-12-01T15:47:30.461Z,98393.72
2022-12-01T15:49:57.487Z,98400.22
2022-12-01T15:52:24.749Z,98394.88
2022-12-01T15:54:52.177Z,98393.13
2022-12-01T15:57:21.980Z,98395.50
2022-12-01T15:59:55.461Z,98400.19
2022-12-01T16:02:28.048Z,98403.31
2022-12-01T16:05:13.521Z,98402.09
2022-12-01T16:10:32.425Z,98419.47
2022-12-01T16:13:36.610Z,98421.13
2022-12-01T16:16:35.300Z,98412.09
2022-12-01T16:19:19.261Z,98416.16
2022-12-01T16:21:52.765Z,98422.41
2022-12-01T16:24:27.859Z,98415.66
2022-12-01T16:26:59.031Z,98404.06
2022-12-01T16:29:28.000Z,98414.59
2022-12-01T16:32:20.266Z,98409.00
2022-12-01T16:34:57.349Z,98413.66
2022-12-01T16:37:24.699Z,98416.56
2022-12-01T16:39:52.053Z,98407.28
2022-12-01T16:42:21.389Z,98413.16
2022-12-01T16:44:49.776Z,98407.56
2022-12-01T16:47:31.551Z,98400.78
2022-12-01T16:49:58.791Z,98398.13
2022-12-01T16:55:25.999Z,98402.31
2022-12-01T16:57:52.995Z,98402.31
2022-12-01T17:00:20.288Z,98396.75
2022-12-01T17:02:47.333Z,98394.00
2022-12-01T17:05:14.560Z,98389.31
2022-12-01T17:07:41.586Z,98393.44
2022-12-01T17:10:09.191Z,98389.28
2022-12-01T17:12:36.528Z,98384.91
2022-12-01T17:15:04.753Z,98381.50
2022-12-01T17:17:31.798Z,98377.63
2022-12-01T17:19:58.822Z,98383.78
2022-12-01T17:22:25.875Z,98385.56
2022-12-01T17:24:55.035Z,98385.03
2022-12-01T17:27:23.430Z,98383.06
2022-12-01T17:29:50.435Z,98379.16
2022-12-01T17:32:17.804Z,98376.94
2022-12-01T17:34:44.873Z,98390.63
2022-12-01T17:37:16.153Z,98389.69
2022-12-01T17:39:46.383Z,98397.47
2022-12-01T17:42:13.376Z,98387.75
2022-12-01T17:44:40.338Z,98394.56
2022-12-01T17:47:07.470Z,98395.34
2022-12-01T17:49:36.629Z,98395.06
2022-12-01T17:52:07.280Z,98395.06
2022-12-01T17:54:34.359Z,98404.81
2022-12-01T17:57:01.369Z,98402.88
2022-12-01T17:59:28.504Z,98409.16
2022-12-01T18:01:55.690Z,98408.94
2022-12-01T18:04:22.709Z,98400.66
2022-12-01T18:06:53.971Z,98405.53
2022-12-01T18:09:22.197Z,98405.28
2022-12-01T18:11:49.528Z,98402.13
2022-12-01T18:14:18.109Z,98392.88
2022-12-01T18:16:45.673Z,98391.91
2022-12-01T18:19:13.076Z,98385.13
2022-12-01T18:21:41.022Z,98379.28
2022-12-01T18:24:11.765Z,98375.91
2022-12-01T18:26:41.386Z,98366.66
2022-12-01T18:29:24.035Z,98355.97
2022-12-01T18:31:52.947Z,98353.31
2022-12-01T18:34:20.028Z,98367.13
2022-12-01T18:36:47.405Z,98371.28
2022-12-01T18:39:14.474Z,98369.56
2022-12-01T18:41:41.623Z,98372.00
2022-12-01T18:44:08.635Z,98383.63
2022-12-01T18:46:35.683Z,98391.41
2022-12-01T18:49:03.283Z,98400.38
2022-12-01T18:51:32.617Z,98397.69
2022-12-01T18:54:01.591Z,98409.88
2022-12-01T18:56:29.745Z,98414.47
2022-12-01T18:59:07.417Z,98419.81
2022-12-01T19:01:36.792Z,98406.94
2022-12-01T19:04:05.332Z,98424.66
2022-12-01T19:06:33.634Z,98415.69
2022-12-01T19:09:02.252Z,98425.91
2022-12-01T19:11:29.717Z,98434.66
2022-12-01T19:13:57.567Z,98432.97
2022-12-01T19:16:25.213Z,98437.81
2022-12-01T19:18:52.405Z,98438.53
2022-12-01T19:21:20.232Z,98452.84
2022-12-01T19:23:48.331Z,98455.28
2022-12-01T19:26:18.125Z,98447.69
2022-12-01T19:28:45.983Z,98451.53
2022-12-01T19:31:19.367Z,98450.09
2022-12-01T19:33:47.038Z,98454.69
2022-12-01T19:36:19.380Z,98456.88
2022-12-01T19:38:47.699Z,98452.25
2022-12-01T19:41:20.915Z,98460.31
2022-12-01T19:43:48.449Z,98459.31
2022-12-01T19:46:18.891Z,98469.91
2022-12-01T19:48:46.537Z,98463.28
2022-12-01T19:51:21.936Z,98459.63
2022-12-01T19:53:49.525Z,98476.25
2022-12-01T19:56:16.529Z,98474.31
2022-12-01T19:58:43.895Z,98474.56
2022-12-01T20:01:13.498Z,98465.66
2022-12-01T20:03:41.292Z,98467.63
2022-12-01T20:06:14.133Z,98455.50
2022-12-01T20:08:41.463Z,98458.13
2022-12-01T20:11:09.203Z,98453.22
2022-12-01T20:13:39.987Z,98445.94
2022-12-01T20:16:16.096Z,98447.63
2022-12-01T20:18:44.019Z,98452.00
2022-12-01T20:21:25.216Z,98451.69
2022-12-01T20:23:59.676Z,98451.69
2022-12-01T20:26:36.559Z,98450.03
2022-12-01T20:29:19.847Z,98453.47
2022-12-01T20:31:47.523Z,98460.78
2022-12-01T20:34:21.215Z,98458.13
2022-12-01T20:36:48.781Z,98460.13
2022-12-01T20:39:16.313Z,98459.41
2022-12-01T20:41:44.019Z,98465.22
2022-12-01T20:44:12.339Z,98479.06
2022-12-01T20:46:41.318Z,98471.34
2022-12-01T20:49:08.867Z,98469.19
2022-12-01T20:51:35.866Z,98473.31
2022-12-01T20:54:27.246Z,98473.59
2022-12-01T20:56:52.501Z,98470.94
2022-12-01T20:59:19.552Z,98471.66
2022-12-01T21:01:46.575Z,98478.69
2022-12-01T21:04:13.664Z,98482.09
2022-12-01T21:06:40.729Z,98481.88
2022-12-01T21:09:08.659Z,98491.84
2022-12-01T21:12:02.489Z,98491.13
2022-12-01T21:14:43.317Z,98490.13
2022-12-01T21:17:24.762Z,98496.00
2022-12-01T21:20:18.176Z,98498.44
2022-12-01T21:22:46.453Z,98500.09
2022-12-01T21:25:19.166Z,98502.78
2022-12-01T21:27:47.312Z,98502.50
2022-12-01T21:30:17.004Z,98502.72
2022-12-01T21:32:44.797Z,98508.31
2022-12-01T21:35:22.165Z,98507.81
2022-12-01T21:37:50.104Z,98502.00
2022-12-01T21:40:23.266Z,98505.38
2022-12-01T21:42:50.966Z,98503.91
2022-12-01T21:45:30.742Z,98502.44
2022-12-01T21:48:06.490Z,98501.22
2022-12-01T21:50:33.585Z,98501.44
2022-12-01T21:53:00.632Z,98499.50
2022-12-01T21:55:33.140Z,98498.25
2022-12-01T21:58:00.180Z,98496.06
2022-12-01T22:00:28.863Z,98497.97
2022-12-01T22:03:26.838Z,98495.47
2022-12-01T22:06:33.218Z,98494.97
2022-12-01T22:09:28.074Z,98486.94
2022-12-01T22:11:58.054Z,98488.63
2022-12-01T22:14:30.404Z,98489.34
2022-12-01T22:17:01.490Z,98492.78
2022-12-01T22:19:37.869Z,98496.16
2022-12-01T22:22:25.509Z,98495.91
2022-12-01T22:24:54.682Z,98492.06
2022-12-01T22:27:38.772Z,98496.88
2022-12-01T22:30:05.715Z,98495.91
2022-12-01T22:33:05.226Z,98489.41
2022-12-01T22:35:49.131Z,98494.06
2022-12-01T22:38:20.745Z,98489.47
2022-12-01T22:41:14.456Z,98491.19
2022-12-01T22:43:52.375Z,98484.88
2022-12-01T22:46:35.120Z,98486.56
2022-12-01T22:49:06.310Z,98483.16
2022-12-01T22:51:44.153Z,98482.00
2022-12-01T22:54:17.123Z,98483.25
2022-12-01T22:56:46.908Z,98483.97
2022-12-01T22:59:20.013Z,98480.56
2022-12-01T23:01:52.291Z,98477.91
2022-12-01T23:04:26.862Z,98484.22
2022-12-01T23:06:59.926Z,98482.78
2022-12-01T23:09:32.522Z,98480.16
2022-12-01T23:12:06.193Z,98480.41
2022-12-01T23:14:34.273Z,98480.66
2022-12-01T23:17:07.621Z,98474.56
2022-12-01T23:19:35.312Z,98473.88
2022-12-01T23:22:02.786Z,98474.31
2022-12-01T23:24:33.914Z,98463.63
2022-12-01T23:27:01.523Z,98474.09
2022-12-01T23:29:30.196Z,98468.00
2022-12-01T23:31:57.166Z,98474.31
2022-12-01T23:34:24.162Z,98467.75
2022-12-01T23:36:51.496Z,98472.63
2022-12-01T23:39:19.318Z,98469.50
2022-12-01T23:41:49.045Z,98466.56
2022-12-01T23:44:15.979Z,98461.28
2022-12-01T23:46:43.273Z,98451.09
2022-12-01T23:49:14.964Z,98460.81
2022-12-01T23:51:48.202Z,98449.88
2022-12-01T23:54:35.464Z,98440.44
2022-12-01T23:57:22.280Z,98441.91
2022-12-01T23:59:51.891Z,98436.06
